UBBB/BAK METAR and TAF weather

Enter ICAO airport designator
Station Type Date Time Source
UBBB METAR 2022/12/05 15:00 UTC NOAA

UBBB 051500Z 05008KT 9999 OVC032 03/M02 Q1035 NOSIG


Station Type Date Time Source
UBBB Decoded METAR 2022/12/05 15:00 UTC NOAA

Baku / Bine Airport, Azerbaijan (UBBB) 40-27N 050-04E -1M
Dec 05, 2022 - 10:00 AM EST / 2022.12.05 1500 UTC
Wind: from the NE (050 degrees) at 9 MPH (8 KT):0
Visibility: greater than 7 mile(s):0
Sky conditions: overcast
Temperature: 37 F (3 C)
Dew Point: 28 F (-2 C)
Relative Humidity: 69%
Pressure (altimeter): 30.56 in. Hg (1035 hPa)
ob: UBBB 051500Z 05008KT 9999 OVC032 03/M02 Q1035 NOSIG
cycle: 15

Station Type Date Time Source
UBBB TAF 2022/12/05 12:59 UTC NOAA

TAF UBBB 051055Z 0512/0612 05010KT 9999 SCT015 BKN030 TX04/0512Z TN02/0602Z
TEMPO 0512/0518 08012KT SCT008
TEMPO 0518/0606 -RA SCT007 OVC020

Example: see airport list